createdAt,value
2019-04-22T00:00:42.485Z,27.95
2019-04-22T00:01:20.637Z,31.42
2019-04-22T00:01:56.964Z,26.25
2019-04-22T00:02:26.477Z,24.77
2019-04-22T00:03:05.437Z,31.65
2019-04-22T00:03:43.461Z,32.25
2019-04-22T00:04:15.964Z,33.35
2019-04-22T00:04:58.956Z,27.00
2019-04-22T00:05:44.380Z,29.10
2019-04-22T00:06:17.755Z,27.52
2019-04-22T00:06:59.065Z,27.75
2019-04-22T00:07:40.293Z,25.72
2019-04-22T00:08:09.101Z,27.60
2019-04-22T00:08:46.304Z,26.75
2019-04-22T00:09:26.235Z,24.95
2019-04-22T00:10:03.089Z,25.27
2019-04-22T00:10:33.181Z,29.75
2019-04-22T00:11:13.186Z,29.23
2019-04-22T00:11:48.662Z,27.30
2019-04-22T00:12:20.418Z,25.05
2019-04-22T00:12:52.972Z,22.75
2019-04-22T00:13:35.350Z,26.87
2019-04-22T00:14:00.738Z,27.62
2019-04-22T00:14:35.112Z,28.40
2019-04-22T00:15:09.774Z,25.02
2019-04-22T00:15:43.829Z,28.73
2019-04-22T00:16:27.567Z,26.77
2019-04-22T00:16:58.554Z,24.98
2019-04-22T00:17:38.542Z,26.35
2019-04-22T00:18:13.335Z,23.38
2019-04-22T00:18:59.106Z,26.17
2019-04-22T00:19:35.984Z,25.62
2019-04-22T00:19:57.686Z,24.52
2019-04-22T00:20:30.673Z,22.13
2019-04-22T00:21:04.855Z,25.08
2019-04-22T00:21:41.431Z,26.77
2019-04-22T00:22:22.143Z,22.52
2019-04-22T00:22:47.894Z,25.00
2019-04-22T00:23:24.687Z,21.42
2019-04-22T00:23:59.126Z,22.37
2019-04-22T00:24:31.368Z,22.62
2019-04-22T00:25:14.508Z,25.27
2019-04-22T00:25:48.226Z,24.70
2019-04-22T00:26:23.692Z,22.13
2019-04-22T00:26:57.147Z,21.60
2019-04-22T00:27:33.870Z,24.23
2019-04-22T00:28:08.622Z,24.27
2019-04-22T00:28:44.051Z,20.15
2019-04-22T00:29:37.330Z,22.25
2019-04-22T00:29:59.372Z,21.87
2019-04-22T00:30:20.684Z,24.12
2019-04-22T00:31:03.139Z,23.85
2019-04-22T00:31:40.737Z,24.02
2019-04-22T00:32:25.274Z,24.55
2019-04-22T00:33:03.194Z,23.07
2019-04-22T00:33:38.868Z,25.82
2019-04-22T00:34:14.388Z,24.80
2019-04-22T00:34:51.320Z,22.60
2019-04-22T00:35:25.616Z,25.12
2019-04-22T00:36:02.789Z,23.35
2019-04-22T00:36:38.034Z,22.90
2019-04-22T00:37:11.007Z,23.70
2019-04-22T00:37:53.686Z,24.87
2019-04-22T00:38:24.008Z,26.93
2019-04-22T00:38:59.091Z,27.02
2019-04-22T00:39:35.915Z,24.75
2019-04-22T00:40:07.308Z,24.35
2019-04-22T00:40:44.617Z,27.20
2019-04-22T00:41:23.346Z,29.05
2019-04-22T00:41:57.046Z,26.10
2019-04-22T00:42:27.480Z,26.05
2019-04-22T00:43:10.061Z,27.60
2019-04-22T00:43:39.488Z,26.85
2019-04-22T00:44:19.051Z,24.40
2019-04-22T00:44:57.848Z,24.37
2019-04-22T00:45:27.034Z,25.30
2019-04-22T00:45:56.246Z,28.02
2019-04-22T00:46:43.207Z,25.92
2019-04-22T00:47:16.374Z,25.10
2019-04-22T00:47:43.575Z,25.55
2019-04-22T00:48:27.795Z,27.48
2019-04-22T00:49:47.997Z,27.95
2019-04-22T00:50:06.683Z,25.40
2019-04-22T00:51:01.685Z,25.15
2019-04-22T00:51:36.592Z,26.20
2019-04-22T00:52:01.198Z,26.00
2019-04-22T00:52:28.509Z,25.37
2019-04-22T00:53:03.945Z,26.42
2019-04-22T00:53:36.050Z,27.20
2019-04-22T00:54:10.679Z,27.82
2019-04-22T00:54:53.115Z,24.90
2019-04-22T00:56:00.739Z,24.95
2019-04-22T00:56:35.735Z,23.57
2019-04-22T00:57:19.984Z,29.60
2019-04-22T00:57:47.463Z,26.33
2019-04-22T00:58:24.640Z,27.62
2019-04-22T00:58:50.232Z,27.58
2019-04-22T00:59:29.792Z,27.30
2019-04-22T01:00:11.883Z,26.85
2019-04-22T01:00:44.435Z,26.55
2019-04-22T01:01:31.917Z,27.27
2019-04-22T01:01:53.990Z,28.90
2019-04-22T01:03:19.684Z,27.67
2019-04-22T01:03:46.230Z,28.83
2019-04-22T01:04:19.963Z,29.72
2019-04-22T01:05:00.751Z,29.60
2019-04-22T01:05:32.924Z,29.00
2019-04-22T01:05:56.853Z,33.25
2019-04-22T01:06:35.395Z,32.10
2019-04-22T01:07:11.536Z,29.98
2019-04-22T01:07:46.429Z,34.92
2019-04-22T01:08:25.394Z,32.70
2019-04-22T01:08:57.814Z,32.45
2019-04-22T01:09:32.611Z,32.03
2019-04-22T01:10:12.860Z,33.48
2019-04-22T01:10:48.008Z,30.88
2019-04-22T01:11:25.152Z,28.77
2019-04-22T01:11:53.675Z,40.03
2019-04-22T01:12:28.469Z,30.77
2019-04-22T01:13:08.152Z,33.23
2019-04-22T01:13:38.628Z,31.68
2019-04-22T01:14:13.089Z,34.58
2019-04-22T01:14:47.763Z,34.40
2019-04-22T01:15:27.602Z,32.70
2019-04-22T01:16:01.204Z,36.65
2019-04-22T01:16:48.893Z,33.92
2019-04-22T01:17:09.603Z,35.13
2019-04-22T01:17:49.489Z,35.60
2019-04-22T01:18:15.729Z,32.67
2019-04-22T01:18:55.541Z,32.53
2019-04-22T01:19:36.683Z,34.38
2019-04-22T01:20:16.278Z,34.80
2019-04-22T01:21:24.362Z,34.92
2019-04-22T01:21:45.082Z,34.43
2019-04-22T01:22:20.725Z,38.50
2019-04-22T01:23:00.514Z,34.40
2019-04-22T01:23:29.643Z,36.50
2019-04-22T01:24:05.861Z,35.92
2019-04-22T01:24:40.767Z,36.45
2019-04-22T01:25:15.974Z,37.95
2019-04-22T01:25:46.282Z,36.93
2019-04-22T01:26:25.527Z,41.00
2019-04-22T01:26:57.880Z,38.48
2019-04-22T01:27:30.967Z,43.15
2019-04-22T01:28:06.429Z,45.67
2019-04-22T01:28:39.248Z,43.13
2019-04-22T01:29:14.702Z,39.95
2019-04-22T01:29:48.957Z,51.80
2019-04-22T01:30:24.201Z,53.10
2019-04-22T01:30:55.693Z,66.30
2019-04-22T01:31:27.487Z,59.30
2019-04-22T01:31:58.204Z,74.45
2019-04-22T01:32:39.406Z,64.70
2019-04-22T01:33:16.306Z,65.67
2019-04-22T01:33:48.314Z,75.32
2019-04-22T01:34:33.121Z,72.85
2019-04-22T01:35:05.932Z,78.50
2019-04-22T01:35:38.595Z,76.37
2019-04-22T01:36:24.640Z,81.60
2019-04-22T01:36:57.669Z,80.38
2019-04-22T01:37:28.855Z,80.32
2019-04-22T01:38:04.271Z,88.45
2019-04-22T01:38:45.654Z,90.92
2019-04-22T01:39:25.836Z,88.30
2019-04-22T01:40:08.452Z,93.55
2019-04-22T01:40:38.508Z,96.67
2019-04-22T01:41:20.191Z,93.35
2019-04-22T01:41:48.892Z,97.50
2019-04-22T01:42:22.205Z,85.20
2019-04-22T01:43:03.807Z,98.33
2019-04-22T01:43:35.044Z,80.15
2019-04-22T01:44:16.442Z,90.50
2019-04-22T01:44:40.342Z,89.62
2019-04-22T01:45:13.900Z,90.28
2019-04-22T01:45:53.301Z,78.65
2019-04-22T01:46:25.898Z,88.80
2019-04-22T01:46:58.457Z,94.58
2019-04-22T01:47:36.495Z,93.00
2019-04-22T01:48:10.367Z,89.55
2019-04-22T01:48:52.452Z,88.03
2019-04-22T01:49:25.746Z,95.47
2019-04-22T01:49:57.950Z,89.25
2019-04-22T01:50:31.802Z,90.38
2019-04-22T01:51:01.393Z,83.95
2019-04-22T01:51:54.636Z,93.65
2019-04-22T01:52:15.787Z,89.17
2019-04-22T01:53:01.982Z,81.37
2019-04-22T01:53:31.369Z,86.63
2019-04-22T01:54:05.569Z,85.00
2019-04-22T01:54:40.031Z,84.13
2019-04-22T01:55:17.482Z,87.62
2019-04-22T01:56:24.518Z,82.57
2019-04-22T01:56:57.135Z,78.25
2019-04-22T01:57:28.500Z,81.95
2019-04-22T01:58:08.560Z,80.77
2019-04-22T01:58:42.279Z,74.50
2019-04-22T01:59:12.507Z,80.97
2019-04-22T01:59:45.699Z,82.27
2019-04-22T02:00:25.462Z,79.00
2019-04-22T02:01:09.716Z,80.55
2019-04-22T02:01:48.448Z,62.90
2019-04-22T02:02:16.205Z,71.00
2019-04-22T02:02:53.231Z,63.87
2019-04-22T02:03:28.993Z,76.02
2019-04-22T02:04:01.526Z,69.47
2019-04-22T02:04:39.287Z,77.15
2019-04-22T02:05:14.608Z,67.50
2019-04-22T02:05:44.210Z,67.62
2019-04-22T02:06:21.895Z,64.92
2019-04-22T02:06:59.467Z,60.63
2019-04-22T02:07:32.128Z,63.28
2019-04-22T02:08:09.670Z,64.65
2019-04-22T02:08:44.679Z,64.35
2019-04-22T02:09:52.928Z,62.17
2019-04-22T02:10:30.123Z,60.80
2019-04-22T02:11:00.764Z,58.25
2019-04-22T02:11:42.678Z,57.55
2019-04-22T02:12:17.292Z,53.23
2019-04-22T02:12:48.550Z,58.08
2019-04-22T02:13:23.724Z,56.68
2019-04-22T02:13:59.174Z,57.58
2019-04-22T02:14:33.100Z,59.40
2019-04-22T02:15:06.334Z,51.30
2019-04-22T02:15:45.905Z,55.85
2019-04-22T02:16:14.219Z,62.20
2019-04-22T02:16:56.977Z,57.60
2019-04-22T02:17:31.605Z,59.67
2019-04-22T02:18:01.331Z,59.63
2019-04-22T02:18:39.392Z,53.17
2019-04-22T02:19:19.023Z,56.53
2019-04-22T02:19:53.232Z,57.45
2019-04-22T02:20:26.777Z,53.85
2019-04-22T02:20:59.627Z,58.00
2019-04-22T02:21:30.176Z,52.38
2019-04-22T02:22:07.073Z,51.08
2019-04-22T02:23:18.985Z,53.85
2019-04-22T02:24:10.790Z,56.15
2019-04-22T02:24:59.160Z,49.35
2019-04-22T02:25:28.487Z,49.48
2019-04-22T02:26:12.660Z,44.18
2019-04-22T02:26:40.273Z,46.05
2019-04-22T02:27:19.716Z,47.58
2019-04-22T02:27:56.521Z,49.05
2019-04-22T02:29:01.556Z,47.53
2019-04-22T02:30:05.389Z,44.58
2019-04-22T02:31:01.936Z,40.92
2019-04-22T02:31:38.076Z,38.38
2019-04-22T02:33:08.187Z,37.90
2019-04-22T02:33:25.222Z,33.65
2019-04-22T02:34:29.718Z,33.70
2019-04-22T02:35:07.576Z,34.95
2019-04-22T02:35:48.608Z,32.23
2019-04-22T02:37:46.264Z,34.67
2019-04-22T02:38:46.630Z,31.75
2019-04-22T02:39:07.926Z,29.42
2019-04-22T02:40:19.504Z,27.77
2019-04-22T02:41:08.757Z,29.23
2019-04-22T02:41:54.757Z,26.23
2019-04-22T02:42:29.616Z,23.83
2019-04-22T02:43:19.240Z,22.17
2019-04-22T02:45:42.179Z,24.70
2019-04-22T02:47:15.671Z,25.23
2019-04-22T02:47:51.970Z,25.85
2019-04-22T02:49:37.848Z,24.92
2019-04-22T02:50:10.657Z,23.60
2019-04-22T02:50:43.923Z,23.73
2019-04-22T02:52:33.274Z,19.02
2019-04-22T02:53:26.717Z,18.85
2019-04-22T02:54:34.350Z,20.30
2019-04-22T02:54:54.782Z,19.17
2019-04-22T02:55:27.548Z,19.35
2019-04-22T02:56:17.349Z,18.75
2019-04-22T02:56:35.932Z,16.52
2019-04-22T02:57:57.666Z,17.92
2019-04-22T02:58:30.816Z,15.03
2019-04-22T02:59:05.820Z,15.68
2019-04-22T02:59:35.986Z,16.55
2019-04-22T03:00:44.411Z,17.20
2019-04-22T03:01:25.672Z,14.93
2019-04-22T03:02:06.261Z,14.98
2019-04-22T03:02:45.983Z,15.95
2019-04-22T03:03:54.504Z,15.35
2019-04-22T03:04:16.076Z,15.88
2019-04-22T03:04:43.756Z,15.60
2019-04-22T03:05:27.729Z,16.32
2019-04-22T03:06:05.240Z,15.53
2019-04-22T03:07:05.419Z,14.68
2019-04-22T03:07:50.569Z,16.35
2019-04-22T03:09:31.670Z,14.85
2019-04-22T03:10:16.111Z,14.20
2019-04-22T03:10:47.326Z,17.62
2019-04-22T03:11:58.673Z,13.28
2019-04-22T03:13:06.650Z,14.63
2019-04-22T03:13:51.130Z,14.15
2019-04-22T03:14:04.742Z,14.65
2019-04-22T03:14:46.240Z,15.05
2019-04-22T03:15:15.058Z,13.28
2019-04-22T03:16:08.417Z,15.50
2019-04-22T03:17:06.128Z,13.68
2019-04-22T03:17:38.955Z,12.00
2019-04-22T03:18:20.057Z,11.85
2019-04-22T03:18:57.390Z,13.90
2019-04-22T03:20:33.494Z,13.90
2019-04-22T03:21:14.671Z,13.35
2019-04-22T03:21:47.006Z,13.95
2019-04-22T03:23:05.868Z,13.15
2019-04-22T03:25:25.802Z,13.75
2019-04-22T03:27:00.651Z,12.03
2019-04-22T03:28:08.791Z,10.53
2019-04-22T03:28:51.163Z,13.08
2019-04-22T03:29:57.268Z,11.75
2019-04-22T03:31:31.729Z,12.88
2019-04-22T03:33:11.062Z,12.23
2019-04-22T03:34:55.455Z,11.78
2019-04-22T03:35:37.683Z,12.00
2019-04-22T03:36:51.474Z,11.53
2019-04-22T03:37:03.948Z,12.50
2019-04-22T03:38:19.374Z,11.70
2019-04-22T03:39:45.637Z,10.08
2019-04-22T03:41:31.253Z,11.20
2019-04-22T03:43:03.887Z,11.20
2019-04-22T03:43:42.514Z,9.75
2019-04-22T03:44:32.017Z,10.82
2019-04-22T03:45:46.444Z,9.75
2019-04-22T03:46:31.664Z,11.28
2019-04-22T03:47:52.827Z,12.70
2019-04-22T03:48:16.009Z,10.15
2019-04-22T03:49:02.000Z,8.88
2019-04-22T03:49:51.956Z,10.90
2019-04-22T03:50:17.420Z,11.73
2019-04-22T03:51:27.611Z,10.25
2019-04-22T03:52:00.335Z,11.20
2019-04-22T03:53:03.686Z,11.68
2019-04-22T03:53:33.069Z,10.80
2019-04-22T03:54:25.624Z,9.08
2019-04-22T03:55:52.254Z,10.58
2019-04-22T03:57:33.936Z,10.50
2019-04-22T03:58:11.062Z,10.72
2019-04-22T03:58:58.745Z,12.10
2019-04-22T03:59:39.941Z,11.28
2019-04-22T04:00:15.568Z,10.90
2019-04-22T04:01:21.750Z,11.20
2019-04-22T04:01:52.980Z,9.03
2019-04-22T04:02:30.114Z,13.50
2019-04-22T04:03:04.630Z,12.65
2019-04-22T04:03:36.335Z,11.85
2019-04-22T04:04:09.676Z,10.68
2019-04-22T04:05:33.609Z,12.45
2019-04-22T04:05:54.214Z,13.55
2019-04-22T04:06:41.564Z,10.90
2019-04-22T04:08:55.470Z,10.78
2019-04-22T04:09:24.046Z,11.53
2019-04-22T04:10:10.330Z,9.75
2019-04-22T04:11:20.550Z,12.45
2019-04-22T04:13:00.508Z,10.28
2019-04-22T04:13:24.801Z,9.78
2019-04-22T04:14:13.860Z,11.80
2019-04-22T04:14:47.167Z,10.23
2019-04-22T04:15:41.022Z,10.40
2019-04-22T04:16:29.926Z,10.00
2019-04-22T04:17:29.388Z,8.43
2019-04-22T04:17:40.730Z,9.80
2019-04-22T04:18:13.295Z,10.00
2019-04-22T04:18:58.142Z,9.90
2019-04-22T04:19:31.364Z,9.93
2019-04-22T04:20:07.469Z,8.80
2019-04-22T04:20:36.431Z,10.75
2019-04-22T04:22:59.035Z,10.35
2019-04-22T04:23:50.529Z,8.78
2019-04-22T04:24:16.066Z,9.23
2019-04-22T04:25:35.516Z,8.73
2019-04-22T04:25:48.257Z,8.78
2019-04-22T04:26:26.436Z,10.25
2019-04-22T04:27:15.289Z,9.90
2019-04-22T04:28:50.305Z,9.90
2019-04-22T04:29:36.177Z,9.45
2019-04-22T04:30:05.190Z,9.18
2019-04-22T04:30:29.609Z,8.40
2019-04-22T04:31:04.705Z,9.33
2019-04-22T04:32:26.899Z,9.68
2019-04-22T04:33:23.296Z,9.58
2019-04-22T04:35:07.684Z,10.23
2019-04-22T04:35:50.202Z,8.75
2019-04-22T04:36:23.155Z,9.40
2019-04-22T04:37:25.338Z,9.78
2019-04-22T04:37:42.573Z,9.35
2019-04-22T04:38:19.085Z,8.23
2019-04-22T04:38:51.905Z,10.72
2019-04-22T04:39:53.474Z,9.08
2019-04-22T04:40:26.855Z,8.00
2019-04-22T04:40:57.852Z,9.08
2019-04-22T04:42:27.308Z,8.58
2019-04-22T04:42:47.853Z,8.08
2019-04-22T04:43:16.305Z,8.13
2019-04-22T04:44:11.219Z,8.50
2019-04-22T04:44:59.360Z,10.53
2019-04-22T04:47:39.028Z,9.78
2019-04-22T04:47:57.944Z,7.67
2019-04-22T04:48:42.858Z,8.58
2019-04-22T04:49:23.985Z,8.43
2019-04-22T04:51:11.835Z,9.50
2019-04-22T04:51:33.636Z,8.00
2019-04-22T04:52:06.706Z,8.03
2019-04-22T04:53:58.222Z,9.25
2019-04-22T04:54:30.527Z,7.40
2019-04-22T04:55:09.718Z,7.78
2019-04-22T04:55:36.163Z,7.55
2019-04-22T04:56:29.664Z,7.65
2019-04-22T04:56:44.546Z,7.92
2019-04-22T04:57:31.180Z,7.20
2019-04-22T04:58:10.013Z,7.33
2019-04-22T04:58:55.808Z,7.65
2019-04-22T04:59:16.343Z,7.72
2019-04-22T05:00:25.787Z,7.62
2019-04-22T05:02:06.517Z,6.60
2019-04-22T05:03:10.411Z,6.22
2019-04-22T05:03:10.420Z,6.87
2019-04-22T05:03:57.231Z,6.67
2019-04-22T05:04:26.629Z,7.75
2019-04-22T05:05:02.698Z,8.93
2019-04-22T05:06:05.844Z,8.80
2019-04-22T05:07:30.779Z,7.67
2019-04-22T05:08:38.996Z,10.05
2019-04-22T05:09:11.694Z,7.47
2019-04-22T05:09:51.693Z,7.22
2019-04-22T05:11:29.271Z,7.85
2019-04-22T05:12:46.910Z,8.83
2019-04-22T05:13:49.257Z,9.03
2019-04-22T05:14:17.241Z,7.47
2019-04-22T05:15:00.387Z,7.12
2019-04-22T05:15:51.113Z,8.10
2019-04-22T05:16:20.394Z,6.75
2019-04-22T05:16:42.919Z,8.25
2019-04-22T05:17:12.929Z,8.53
2019-04-22T05:17:54.283Z,7.80
2019-04-22T05:18:20.808Z,8.20
2019-04-22T05:19:05.508Z,7.95
2019-04-22T05:19:33.111Z,6.70
2019-04-22T05:20:12.871Z,8.20
2019-04-22T05:20:55.547Z,7.72
2019-04-22T05:21:53.318Z,8.73
2019-04-22T05:22:27.993Z,7.15
2019-04-22T05:23:01.035Z,8.15
2019-04-22T05:23:37.444Z,7.80
2019-04-22T05:24:19.418Z,6.58
2019-04-22T05:24:42.573Z,6.67
2019-04-22T05:25:25.245Z,7.28
2019-04-22T05:25:57.647Z,7.87
2019-04-22T05:26:32.544Z,7.47
2019-04-22T05:27:13.337Z,7.25
2019-04-22T05:27:41.185Z,7.58
2019-04-22T05:28:18.876Z,8.15
2019-04-22T05:28:49.917Z,9.30
2019-04-22T05:29:35.082Z,8.38
2019-04-22T05:30:21.511Z,7.87
2019-04-22T05:30:35.384Z,8.33
2019-04-22T05:31:15.418Z,8.90
2019-04-22T05:31:52.147Z,7.85
2019-04-22T05:32:24.430Z,7.35
2019-04-22T05:32:54.166Z,8.70
2019-04-22T05:33:30.331Z,8.78
2019-04-22T05:34:09.660Z,8.10
2019-04-22T05:34:40.218Z,9.15
2019-04-22T05:35:16.465Z,7.95
2019-04-22T05:35:56.349Z,7.30
2019-04-22T05:36:29.773Z,8.33
2019-04-22T05:37:01.147Z,7.08
2019-04-22T05:37:38.416Z,7.92
2019-04-22T05:38:17.264Z,8.48
2019-04-22T05:38:47.668Z,8.80
2019-04-22T05:39:17.277Z,8.70
2019-04-22T05:39:56.342Z,7.70
2019-04-22T05:40:29.316Z,8.85
2019-04-22T05:41:14.264Z,8.80
2019-04-22T05:41:43.167Z,7.28
2019-04-22T05:42:21.763Z,6.70
2019-04-22T05:42:49.427Z,7.80
2019-04-22T05:43:30.992Z,6.97
2019-04-22T05:44:04.973Z,8.90
2019-04-22T05:44:47.743Z,7.87
2019-04-22T05:45:15.826Z,8.05
2019-04-22T05:45:49.450Z,8.05
2019-04-22T05:46:22.441Z,7.60
2019-04-22T05:46:54.460Z,8.08
2019-04-22T05:47:32.009Z,7.60
2019-04-22T05:48:29.554Z,7.58
2019-04-22T05:48:43.923Z,8.20
2019-04-22T05:49:23.532Z,7.87
2019-04-22T05:49:48.322Z,8.53
2019-04-22T05:50:23.979Z,8.78
2019-04-22T05:51:02.402Z,8.08
2019-04-22T05:52:14.554Z,7.37
2019-04-22T05:52:55.251Z,9.03
2019-04-22T05:53:27.677Z,8.45
2019-04-22T05:54:08.644Z,7.22
2019-04-22T05:54:41.106Z,8.15
2019-04-22T05:55:16.142Z,7.30
2019-04-22T05:55:55.499Z,8.50
2019-04-22T05:56:33.886Z,7.47
2019-04-22T05:57:06.569Z,6.92
2019-04-22T05:57:33.035Z,7.87
2019-04-22T05:58:15.188Z,8.85
2019-04-22T05:58:53.614Z,7.20
2019-04-22T05:59:24.367Z,7.78
2019-04-22T06:00:01.611Z,7.60
2019-04-22T06:02:33.350Z,8.05
2019-04-22T06:02:56.661Z,8.98
2019-04-22T06:03:32.159Z,8.40
2019-04-22T06:04:44.902Z,8.20
2019-04-22T06:05:17.180Z,7.53
2019-04-22T06:05:47.639Z,10.08
2019-04-22T06:06:23.825Z,9.23
2019-04-22T06:07:04.309Z,7.37
2019-04-22T06:07:40.312Z,8.93
2019-04-22T06:08:11.873Z,7.72
2019-04-22T06:08:51.281Z,7.35
2019-04-22T06:09:24.586Z,7.78
2019-04-22T06:10:06.603Z,8.63
2019-04-22T06:11:16.887Z,7.40
2019-04-22T06:11:36.219Z,7.37
2019-04-22T06:12:19.341Z,7.67
2019-04-22T06:12:58.196Z,7.62
2019-04-22T06:13:27.627Z,15.15
2019-04-22T06:14:12.374Z,6.83
2019-04-22T06:14:50.647Z,7.67
2019-04-22T06:15:18.385Z,8.33
2019-04-22T06:15:58.707Z,9.13
2019-04-22T06:16:41.266Z,8.08
2019-04-22T06:17:11.100Z,10.32
2019-04-22T06:17:53.072Z,8.43
2019-04-22T06:18:56.895Z,7.90
2019-04-22T06:19:31.333Z,7.67
2019-04-22T06:20:03.871Z,8.05
2019-04-22T06:20:45.508Z,8.13
2019-04-22T06:21:18.688Z,7.95
2019-04-22T06:21:48.688Z,7.33
2019-04-22T06:22:37.655Z,7.47
2019-04-22T06:23:04.534Z,7.95
2019-04-22T06:23:40.275Z,9.08
2019-04-22T06:24:16.725Z,8.43
2019-04-22T06:24:49.138Z,7.62
2019-04-22T06:25:27.600Z,9.23
2019-04-22T06:26:46.197Z,9.20
2019-04-22T06:27:16.002Z,7.72
2019-04-22T06:27:52.413Z,8.95
2019-04-22T06:28:31.968Z,8.20
2019-04-22T06:28:54.862Z,8.65
2019-04-22T06:29:31.985Z,7.97
2019-04-22T06:30:04.274Z,7.15
2019-04-22T06:30:46.644Z,8.18
2019-04-22T06:31:23.032Z,9.10
2019-04-22T06:32:11.766Z,9.03
2019-04-22T06:33:04.124Z,9.20
2019-04-22T06:33:34.757Z,8.88
2019-04-22T06:34:42.226Z,8.03
2019-04-22T06:35:37.932Z,7.72
2019-04-22T06:35:56.387Z,8.85
2019-04-22T06:36:33.488Z,8.25
2019-04-22T06:37:07.637Z,7.60
2019-04-22T06:37:43.426Z,9.18
2019-04-22T06:38:46.222Z,9.38
2019-04-22T06:39:28.217Z,11.57
2019-04-22T06:39:58.855Z,9.60
2019-04-22T06:41:16.467Z,10.32
2019-04-22T06:41:56.641Z,8.58
2019-04-22T06:42:26.624Z,8.45
2019-04-22T06:43:01.092Z,8.35
2019-04-22T06:44:16.223Z,9.03
2019-04-22T06:44:50.013Z,9.48
2019-04-22T06:45:20.045Z,11.35
2019-04-22T06:45:44.958Z,8.30
2019-04-22T06:46:29.909Z,7.87
2019-04-22T06:47:00.594Z,7.83
2019-04-22T06:48:24.052Z,9.50
2019-04-22T06:48:46.020Z,10.50
2019-04-22T06:49:23.898Z,9.85
2019-04-22T06:49:55.472Z,7.83
2019-04-22T06:50:39.904Z,9.40
2019-04-22T06:51:09.521Z,8.93
2019-04-22T06:51:46.532Z,8.95
2019-04-22T06:52:18.281Z,7.85
2019-04-22T06:52:54.571Z,8.65
2019-04-22T06:53:30.133Z,9.25
2019-04-22T06:54:03.036Z,9.68
2019-04-22T06:54:41.601Z,8.53
2019-04-22T06:55:15.170Z,9.25
2019-04-22T06:55:46.569Z,9.55
2019-04-22T06:56:22.361Z,9.23
2019-04-22T06:57:02.096Z,9.50
2019-04-22T06:57:30.910Z,8.45
2019-04-22T06:58:10.680Z,9.60
2019-04-22T06:58:50.619Z,7.97
2019-04-22T06:59:18.430Z,8.65
2019-04-22T07:00:13.618Z,10.28
2019-04-22T07:00:30.553Z,8.88
2019-04-22T07:01:09.746Z,10.28
2019-04-22T07:01:43.244Z,8.80
2019-04-22T07:02:20.599Z,7.90
2019-04-22T07:03:10.734Z,9.85
2019-04-22T07:03:57.029Z,12.13
2019-04-22T07:04:33.763Z,10.58
2019-04-22T07:05:27.485Z,9.33
2019-04-22T07:05:48.910Z,14.87
2019-04-22T07:06:26.492Z,9.08
2019-04-22T07:07:31.185Z,14.98
2019-04-22T07:08:16.287Z,10.48
2019-04-22T07:09:10.924Z,9.45
2019-04-22T07:09:36.920Z,9.08
2019-04-22T07:10:04.022Z,10.53
2019-04-22T07:10:58.281Z,8.40
2019-04-22T07:11:36.046Z,8.08
2019-04-22T07:12:11.561Z,9.50
2019-04-22T07:12:48.736Z,9.70
2019-04-22T07:13:23.559Z,7.20
2019-04-22T07:14:01.891Z,8.88
2019-04-22T07:14:32.074Z,8.20
2019-04-22T07:15:12.013Z,8.63
2019-04-22T07:15:50.352Z,9.98
2019-04-22T07:16:18.597Z,8.05
2019-04-22T07:16:51.316Z,6.80
2019-04-22T07:17:31.053Z,6.60
2019-04-22T07:18:04.822Z,7.72
2019-04-22T07:18:37.281Z,7.00
2019-04-22T07:19:15.149Z,7.37
2019-04-22T07:19:47.191Z,7.17
2019-04-22T07:20:23.727Z,7.42
2019-04-22T07:21:30.525Z,6.97
2019-04-22T07:22:11.209Z,10.03
2019-04-22T07:22:39.966Z,7.08
2019-04-22T07:23:24.791Z,6.30
2019-04-22T07:24:02.481Z,7.05
2019-04-22T07:25:06.192Z,7.97
2019-04-22T07:25:41.089Z,7.42
2019-04-22T07:26:53.007Z,7.75
2019-04-22T07:27:20.611Z,7.60
2019-04-22T07:27:58.561Z,8.18
2019-04-22T07:28:30.904Z,16.90
2019-04-22T07:29:07.517Z,8.95
2019-04-22T07:29:46.780Z,7.65
2019-04-22T07:30:22.235Z,7.42
2019-04-22T07:31:02.404Z,8.58
2019-04-22T07:31:28.527Z,9.63
2019-04-22T07:32:25.270Z,7.80
2019-04-22T07:33:02.400Z,6.83
2019-04-22T07:33:34.826Z,7.40
2019-04-22T07:34:27.859Z,6.97
2019-04-22T07:35:01.454Z,7.47
2019-04-22T07:36:56.586Z,6.55
2019-04-22T07:37:28.198Z,8.23
2019-04-22T07:37:55.589Z,6.83
2019-04-22T07:38:26.625Z,7.12
2019-04-22T07:39:05.728Z,8.38
2019-04-22T07:39:44.243Z,9.85
2019-04-22T07:40:18.327Z,8.40
2019-04-22T07:40:59.432Z,6.62
2019-04-22T07:41:28.054Z,6.70
2019-04-22T07:41:59.183Z,6.40
2019-04-22T07:42:36.646Z,7.50
2019-04-22T07:43:15.514Z,6.17
2019-04-22T07:44:02.949Z,7.47
2019-04-22T07:44:25.842Z,10.32
2019-04-22T07:45:01.108Z,7.80
2019-04-22T07:46:09.584Z,6.53
2019-04-22T07:46:54.681Z,5.33
2019-04-22T07:47:56.724Z,11.93
2019-04-22T07:48:33.468Z,6.90
2019-04-22T07:49:05.241Z,7.40
2019-04-22T07:49:39.496Z,6.83
2019-04-22T07:50:25.407Z,7.78
2019-04-22T07:51:21.570Z,8.60
2019-04-22T07:52:01.432Z,6.72
2019-04-22T07:52:35.235Z,6.92
2019-04-22T07:53:05.458Z,7.20
2019-04-22T07:53:39.434Z,6.87
2019-04-22T07:54:39.711Z,6.95
2019-04-22T07:54:53.055Z,6.60
2019-04-22T07:55:27.320Z,7.45
2019-04-22T07:56:06.738Z,6.55
2019-04-22T07:56:36.526Z,5.90
2019-04-22T07:57:25.453Z,7.65
2019-04-22T07:58:05.245Z,6.42
2019-04-22T07:58:26.136Z,9.73
2019-04-22T07:58:58.325Z,8.33
2019-04-22T07:59:35.229Z,7.92
2019-04-22T08:00:15.926Z,6.58
2019-04-22T08:00:52.747Z,6.40
2019-04-22T08:01:20.362Z,7.97
2019-04-22T08:01:55.921Z,9.70
2019-04-22T08:02:51.706Z,6.15
2019-04-22T08:03:12.152Z,8.35
2019-04-22T08:03:51.667Z,5.62
2019-04-22T08:04:22.899Z,6.15
2019-04-22T08:06:36.210Z,6.12
2019-04-22T08:07:16.121Z,6.05
2019-04-22T08:07:50.550Z,5.80
2019-04-22T08:08:26.039Z,7.60
2019-04-22T08:09:00.388Z,6.22
2019-04-22T08:09:35.634Z,5.85
2019-04-22T08:10:18.912Z,5.55
2019-04-22T08:10:48.474Z,8.45
2019-04-22T08:11:52.476Z,5.78
2019-04-22T08:12:36.243Z,7.95
2019-04-22T08:13:05.734Z,6.58
2019-04-22T08:13:38.804Z,6.40
2019-04-22T08:14:14.651Z,7.92
2019-04-22T08:14:45.629Z,11.28
2019-04-22T08:15:27.394Z,5.83
2019-04-22T08:15:58.145Z,6.45
2019-04-22T08:16:33.496Z,5.42
2019-04-22T08:17:32.423Z,6.37
2019-04-22T08:18:17.481Z,5.65
2019-04-22T08:19:00.736Z,5.95
2019-04-22T08:19:28.733Z,7.85
2019-04-22T08:20:44.074Z,5.80
2019-04-22T08:21:12.389Z,6.80
2019-04-22T08:21:52.161Z,5.58
2019-04-22T08:22:23.364Z,5.28
2019-04-22T08:23:05.963Z,6.42
2019-04-22T08:23:35.481Z,6.60
2019-04-22T08:24:06.380Z,6.55
2019-04-22T08:25:16.489Z,11.43
2019-04-22T08:25:58.014Z,9.88
2019-04-22T08:26:33.527Z,9.28
2019-04-22T08:27:08.685Z,8.70
2019-04-22T08:27:39.526Z,10.55
2019-04-22T08:28:17.800Z,13.80
2019-04-22T08:28:53.295Z,12.30
2019-04-22T08:29:30.070Z,11.78
2019-04-22T08:30:11.902Z,11.55
2019-04-22T08:31:14.870Z,9.98
2019-04-22T08:31:51.932Z,10.32
2019-04-22T08:32:22.027Z,9.58
2019-04-22T08:32:53.105Z,7.75
2019-04-22T08:34:08.220Z,5.80
2019-04-22T08:34:40.827Z,7.83
2019-04-22T08:35:20.951Z,6.90
2019-04-22T08:36:28.180Z,9.38
2019-04-22T08:37:47.918Z,6.50
2019-04-22T08:38:14.989Z,6.92
2019-04-22T08:38:53.959Z,7.53
2019-04-22T08:40:01.944Z,6.22
2019-04-22T08:40:40.464Z,7.87
2019-04-22T08:41:16.395Z,7.95
2019-04-22T08:41:41.492Z,7.45
2019-04-22T08:42:31.816Z,6.60
2019-04-22T08:43:37.793Z,6.30
2019-04-22T08:44:07.641Z,7.55
2019-04-22T08:45:25.318Z,6.37
2019-04-22T08:45:51.118Z,11.45
2019-04-22T08:47:36.126Z,7.03
2019-04-22T08:48:07.644Z,9.88
2019-04-22T08:48:59.054Z,6.08
2019-04-22T08:49:29.968Z,6.33
2019-04-22T08:50:03.236Z,5.33
2019-04-22T08:50:33.921Z,6.47
2019-04-22T08:51:19.242Z,5.47
2019-04-22T08:51:42.802Z,4.85
2019-04-22T08:52:21.108Z,7.53
2019-04-22T08:53:14.296Z,5.78
2019-04-22T08:53:35.870Z,7.08
2019-04-22T08:54:11.827Z,6.17
2019-04-22T08:54:44.598Z,6.35
2019-04-22T08:55:17.964Z,6.20
2019-04-22T08:55:59.574Z,5.17
2019-04-22T08:56:32.526Z,5.45
2019-04-22T08:57:03.148Z,6.12
2019-04-22T08:57:58.510Z,7.10
2019-04-22T08:58:20.929Z,5.67
2019-04-22T08:58:50.857Z,8.43
2019-04-22T08:59:19.858Z,5.65
2019-04-22T09:00:37.375Z,8.13
2019-04-22T09:01:14.665Z,5.10
2019-04-22T09:01:38.116Z,7.03
2019-04-22T09:02:20.505Z,6.92
2019-04-22T09:02:54.012Z,5.10
2019-04-22T09:03:27.244Z,11.75
2019-04-22T09:04:02.245Z,7.20
2019-04-22T09:04:38.492Z,6.92
2019-04-22T09:05:22.810Z,6.45
2019-04-22T09:06:00.810Z,6.72
2019-04-22T09:06:39.889Z,5.83
2019-04-22T09:07:31.675Z,6.53
2019-04-22T09:08:15.696Z,8.13
2019-04-22T09:08:50.426Z,6.00
2019-04-22T09:09:22.569Z,5.47
2019-04-22T09:09:55.665Z,6.05